createdAt,value
2023-02-06T00:01:36.434Z,8.80
2023-02-06T00:04:05.108Z,9.30
2023-02-06T00:06:32.956Z,8.90
2023-02-06T00:09:00.702Z,8.10
2023-02-06T00:11:28.553Z,11.00
2023-02-06T00:13:56.120Z,9.00
2023-02-06T00:16:43.813Z,9.10
2023-02-06T00:19:12.973Z,9.90
2023-02-06T00:21:43.207Z,9.80
2023-02-06T00:24:12.098Z,9.50
2023-02-06T00:26:40.786Z,9.30
2023-02-06T00:29:08.797Z,9.10
2023-02-06T00:31:37.118Z,9.10
2023-02-06T00:34:07.858Z,8.60
2023-02-06T00:36:36.067Z,9.20
2023-02-06T00:39:04.368Z,9.10
2023-02-06T00:41:32.636Z,9.10
2023-02-06T00:44:00.834Z,8.50
2023-02-06T00:46:29.258Z,8.20
2023-02-06T00:48:57.128Z,8.00
2023-02-06T00:51:25.140Z,8.30
2023-02-06T00:53:52.960Z,9.50
2023-02-06T00:56:21.125Z,9.00
2023-02-06T00:58:48.801Z,8.00
2023-02-06T01:01:16.888Z,8.00
2023-02-06T01:03:45.147Z,9.20
2023-02-06T01:06:13.280Z,8.00
2023-02-06T01:08:41.817Z,8.80
2023-02-06T01:11:14.214Z,7.50
2023-02-06T01:16:10.737Z,7.50
2023-02-06T01:18:38.928Z,7.70
2023-02-06T01:21:10.746Z,8.10
2023-02-06T01:23:39.541Z,8.60
2023-02-06T01:26:09.595Z,7.60
2023-02-06T01:28:43.949Z,8.30
2023-02-06T01:31:20.641Z,8.40
2023-02-06T01:33:49.089Z,8.10
2023-02-06T01:36:19.592Z,8.40
2023-02-06T01:38:47.554Z,8.00
2023-02-06T01:41:14.932Z,8.10
2023-02-06T01:43:47.910Z,8.20
2023-02-06T01:46:14.855Z,8.40
2023-02-06T01:48:51.656Z,7.90
2023-02-06T01:51:19.511Z,7.70
2023-02-06T01:53:50.562Z,7.80
2023-02-06T01:56:20.342Z,8.10
2023-02-06T01:58:52.024Z,7.80
2023-02-06T02:03:47.461Z,7.70
2023-02-06T02:06:16.207Z,8.60
2023-02-06T02:08:44.526Z,7.80
2023-02-06T02:11:14.618Z,8.00
2023-02-06T02:13:41.532Z,7.60
2023-02-06T02:16:23.910Z,8.60
2023-02-06T02:19:09.304Z,9.10
2023-02-06T02:22:00.695Z,8.80
2023-02-06T02:24:39.815Z,8.00
2023-02-06T02:27:12.384Z,8.40
2023-02-06T02:30:01.358Z,9.00
2023-02-06T02:32:40.293Z,7.90
2023-02-06T02:35:28.799Z,8.70
2023-02-06T02:38:29.285Z,8.50
2023-02-06T02:41:05.858Z,9.00
2023-02-06T02:43:44.556Z,8.40
2023-02-06T02:46:21.913Z,8.70
2023-02-06T02:48:50.281Z,8.70
2023-02-06T02:51:17.686Z,8.40
2023-02-06T02:53:44.764Z,9.10
2023-02-06T02:56:20.836Z,8.10
2023-02-06T02:58:50.923Z,9.10
2023-02-06T03:01:20.388Z,8.90
2023-02-06T03:03:47.392Z,9.70
2023-02-06T03:06:22.219Z,9.30
2023-02-06T03:09:22.312Z,9.30
2023-02-06T03:11:55.905Z,8.90
2023-02-06T03:14:45.940Z,9.90
2023-02-06T03:17:15.466Z,8.70
2023-02-06T03:19:45.956Z,9.40
2023-02-06T03:22:13.490Z,9.00
2023-02-06T03:24:40.374Z,7.00
2023-02-06T03:27:10.228Z,10.00
2023-02-06T03:29:38.748Z,9.70
2023-02-06T03:32:25.154Z,8.90
2023-02-06T03:35:18.605Z,9.90
2023-02-06T03:37:45.664Z,9.30
2023-02-06T03:40:32.509Z,9.70
2023-02-06T03:43:01.751Z,9.70
2023-02-06T03:45:36.723Z,9.50
2023-02-06T03:48:06.700Z,9.30
2023-02-06T03:50:33.897Z,9.70
2023-02-06T03:53:00.847Z,9.20
2023-02-06T03:55:27.770Z,9.10
2023-02-06T03:58:06.774Z,9.00
2023-02-06T04:00:34.273Z,9.20
2023-02-06T04:03:01.252Z,10.00
2023-02-06T04:05:28.147Z,9.80
2023-02-06T04:07:57.452Z,8.80
2023-02-06T04:10:26.286Z,9.90
2023-02-06T04:12:53.697Z,9.80
2023-02-06T04:15:21.609Z,10.60
2023-02-06T04:17:59.824Z,10.10
2023-02-06T04:20:28.113Z,9.60
2023-02-06T04:22:55.410Z,9.60
2023-02-06T04:25:22.457Z,10.40
2023-02-06T04:27:49.702Z,8.80
2023-02-06T04:30:17.988Z,9.90
2023-02-06T04:32:46.361Z,9.90
2023-02-06T04:35:13.362Z,9.80
2023-02-06T04:37:41.545Z,9.40
2023-02-06T04:40:09.042Z,10.10
2023-02-06T04:42:36.059Z,10.20
2023-02-06T04:45:03.142Z,10.70
2023-02-06T04:47:30.476Z,9.90
2023-02-06T04:49:57.315Z,10.40
2023-02-06T04:52:24.270Z,10.40
2023-02-06T04:54:51.332Z,10.60
2023-02-06T04:57:18.199Z,10.00
2023-02-06T04:59:45.182Z,10.50
2023-02-06T05:02:12.357Z,10.90
2023-02-06T05:04:39.214Z,10.30
2023-02-06T05:07:06.185Z,10.70
2023-02-06T05:09:33.289Z,10.30
2023-02-06T05:12:00.616Z,10.80
2023-02-06T05:14:28.369Z,10.30
2023-02-06T05:16:57.185Z,10.80
2023-02-06T05:19:24.280Z,9.80
2023-02-06T05:21:51.220Z,10.30
2023-02-06T05:24:18.189Z,9.80
2023-02-06T05:26:46.624Z,11.00
2023-02-06T05:29:13.528Z,9.60
2023-02-06T05:31:40.534Z,10.70
2023-02-06T05:34:08.972Z,9.70
2023-02-06T05:36:36.090Z,10.30
2023-02-06T05:39:02.904Z,11.30
2023-02-06T05:41:29.913Z,11.00
2023-02-06T05:43:57.026Z,11.60
2023-02-06T05:46:23.940Z,10.00
2023-02-06T05:48:50.846Z,10.30
2023-02-06T05:51:17.837Z,10.50
2023-02-06T05:53:44.845Z,9.90
2023-02-06T05:56:11.732Z,10.70
2023-02-06T05:58:38.867Z,10.00
2023-02-06T06:01:05.927Z,11.40
2023-02-06T06:03:33.556Z,11.00
2023-02-06T06:06:00.737Z,10.70
2023-02-06T06:08:27.736Z,10.90
2023-02-06T06:10:54.788Z,10.10
2023-02-06T06:13:21.772Z,11.50
2023-02-06T06:15:51.860Z,12.00
2023-02-06T06:18:20.221Z,11.40
2023-02-06T06:20:47.748Z,11.30
2023-02-06T06:23:16.380Z,11.80
2023-02-06T06:25:44.021Z,11.30
2023-02-06T06:28:11.011Z,11.60
2023-02-06T06:30:38.417Z,11.50
2023-02-06T06:33:05.623Z,11.80
2023-02-06T06:35:32.813Z,11.50
2023-02-06T06:40:46.046Z,12.30
2023-02-06T06:43:13.955Z,11.10
2023-02-06T06:45:41.241Z,11.30
2023-02-06T06:48:08.351Z,12.00
2023-02-06T06:50:35.472Z,12.90
2023-02-06T06:53:03.008Z,11.30
2023-02-06T06:55:30.641Z,12.10
2023-02-06T06:57:58.389Z,11.70
2023-02-06T07:00:25.978Z,13.00
2023-02-06T07:02:53.269Z,12.30
2023-02-06T07:05:20.902Z,12.00
2023-02-06T07:07:48.317Z,11.80
2023-02-06T07:10:15.804Z,11.80
2023-02-06T07:12:43.126Z,12.60
2023-02-06T07:15:10.484Z,12.20
2023-02-06T07:17:39.093Z,12.50
2023-02-06T07:20:07.350Z,12.00
2023-02-06T07:22:34.398Z,12.70
2023-02-06T07:25:01.683Z,13.20
2023-02-06T07:27:29.091Z,12.60
2023-02-06T07:29:56.206Z,10.90
2023-02-06T07:32:23.418Z,11.80
2023-02-06T07:34:50.585Z,11.70
2023-02-06T07:37:17.896Z,12.10
2023-02-06T07:39:44.908Z,10.90
2023-02-06T07:42:12.246Z,12.30
2023-02-06T07:45:00.893Z,10.10
2023-02-06T07:47:27.808Z,10.30
2023-02-06T07:49:54.710Z,11.00
2023-02-06T07:52:22.459Z,7.80
2023-02-06T07:54:49.393Z,8.80
2023-02-06T07:57:16.502Z,9.50
2023-02-06T07:59:43.544Z,8.90
2023-02-06T08:02:11.764Z,8.20
2023-02-06T08:04:38.933Z,7.60
2023-02-06T08:07:06.383Z,6.60
2023-02-06T08:09:33.730Z,7.60
2023-02-06T08:12:00.635Z,6.00
2023-02-06T08:14:28.659Z,6.30
2023-02-06T08:16:55.645Z,5.90
2023-02-06T08:19:22.696Z,4.80
2023-02-06T08:21:50.227Z,4.70
2023-02-06T08:24:17.150Z,4.00
2023-02-06T08:26:44.096Z,4.10
2023-02-06T08:29:11.166Z,3.60
2023-02-06T08:31:40.154Z,3.90
2023-02-06T08:34:08.171Z,3.80
2023-02-06T08:36:36.018Z,2.90
2023-02-06T08:39:03.634Z,3.40
2023-02-06T08:41:37.873Z,3.80
2023-02-06T08:44:07.241Z,3.50
2023-02-06T08:46:34.297Z,3.80
2023-02-06T08:49:04.827Z,3.60
2023-02-06T08:51:33.453Z,3.60
2023-02-06T08:54:01.992Z,3.50
2023-02-06T08:56:29.341Z,3.50
2023-02-06T08:59:02.147Z,3.80
2023-02-06T09:01:30.663Z,3.80
2023-02-06T09:03:59.700Z,3.40
2023-02-06T09:06:26.825Z,3.50
2023-02-06T09:08:54.155Z,3.80
2023-02-06T09:11:26.092Z,3.90
2023-02-06T09:13:55.479Z,4.00
2023-02-06T09:16:22.981Z,4.30
2023-02-06T09:18:53.877Z,3.90
2023-02-06T09:21:25.184Z,4.20
2023-02-06T09:23:55.710Z,3.80
2023-02-06T09:26:24.790Z,4.10
2023-02-06T09:28:55.034Z,3.60
2023-02-06T09:31:22.092Z,3.60
2023-02-06T09:33:49.222Z,4.00
2023-02-06T09:36:18.804Z,4.10
2023-02-06T09:38:48.165Z,3.40
2023-02-06T09:41:25.286Z,4.20
2023-02-06T09:44:04.317Z,4.10
2023-02-06T09:46:33.273Z,3.70
2023-02-06T09:51:49.767Z,4.00
2023-02-06T09:54:47.234Z,4.20
2023-02-06T09:57:21.963Z,3.70
2023-02-06T09:59:52.445Z,3.40
2023-02-06T10:02:59.718Z,3.10
2023-02-06T10:05:47.505Z,3.60
2023-02-06T10:08:25.516Z,3.50
2023-02-06T10:10:58.314Z,3.50
2023-02-06T10:13:33.193Z,3.30
2023-02-06T10:16:16.734Z,3.30
2023-02-06T10:18:51.945Z,3.80
2023-02-06T10:21:37.699Z,3.70
2023-02-06T10:24:07.614Z,3.60
2023-02-06T10:26:38.185Z,3.80
2023-02-06T10:29:05.297Z,3.90
2023-02-06T10:31:50.563Z,3.80
2023-02-06T10:34:20.514Z,3.50
2023-02-06T10:36:55.871Z,4.30
2023-02-06T10:39:56.094Z,4.30
2023-02-06T10:42:41.821Z,4.50
2023-02-06T10:46:03.142Z,4.20
2023-02-06T10:48:35.743Z,3.20
2023-02-06T10:51:24.370Z,4.20
2023-02-06T10:53:52.331Z,4.20
2023-02-06T10:56:22.661Z,4.30
2023-02-06T10:59:00.234Z,4.60
2023-02-06T11:01:31.083Z,4.50
2023-02-06T11:04:15.941Z,3.90
2023-02-06T11:06:45.968Z,5.00
2023-02-06T11:09:14.133Z,4.20
2023-02-06T11:11:47.955Z,4.10
2023-02-06T11:14:25.214Z,4.30
2023-02-06T11:16:52.592Z,4.20
2023-02-06T11:19:27.550Z,4.10
2023-02-06T11:21:56.681Z,4.20
2023-02-06T11:24:24.670Z,3.90
2023-02-06T11:26:55.837Z,4.50
2023-02-06T11:29:24.287Z,4.60
2023-02-06T11:31:52.381Z,4.30
2023-02-06T11:34:31.588Z,4.20
2023-02-06T11:37:26.069Z,4.20
2023-02-06T11:39:53.708Z,4.30
2023-02-06T11:42:23.016Z,4.30
2023-02-06T11:44:53.107Z,4.30
2023-02-06T11:47:23.798Z,4.70
2023-02-06T11:49:51.549Z,4.50
2023-02-06T11:52:30.345Z,4.40
2023-02-06T11:55:01.839Z,3.90
2023-02-06T11:57:34.055Z,4.70
2023-02-06T12:00:02.863Z,4.20
2023-02-06T12:02:31.219Z,4.70
2023-02-06T12:05:11.187Z,4.40
2023-02-06T12:07:50.803Z,4.70
2023-02-06T12:10:18.700Z,5.30
2023-02-06T12:12:49.707Z,4.40
2023-02-06T12:15:43.670Z,5.10
2023-02-06T12:18:12.138Z,4.90
2023-02-06T12:23:19.490Z,4.70
2023-02-06T12:25:49.561Z,4.50
2023-02-06T12:28:22.774Z,4.90
2023-02-06T12:31:11.232Z,5.10
2023-02-06T12:33:50.728Z,4.60
2023-02-06T12:36:25.725Z,4.70
2023-02-06T12:39:04.888Z,5.10
2023-02-06T12:42:03.084Z,5.10
2023-02-06T12:45:00.664Z,4.30
2023-02-06T12:47:46.849Z,4.40
2023-02-06T12:50:22.128Z,4.60
2023-02-06T12:52:53.953Z,4.60
2023-02-06T12:55:28.303Z,3.90
2023-02-06T12:57:58.121Z,3.40
2023-02-06T13:00:34.488Z,4.40
2023-02-06T13:03:27.596Z,4.20
2023-02-06T13:06:03.244Z,3.90
2023-02-06T13:08:36.344Z,4.10
2023-02-06T13:11:08.460Z,4.20
2023-02-06T13:13:38.631Z,3.70
2023-02-06T13:16:06.273Z,3.70
2023-02-06T13:18:45.600Z,3.90
2023-02-06T13:21:29.577Z,3.90
2023-02-06T13:24:02.856Z,3.90
2023-02-06T13:26:56.556Z,3.80
2023-02-06T13:29:39.010Z,4.10
2023-02-06T13:34:44.265Z,3.80
2023-02-06T13:37:33.633Z,3.70
2023-02-06T13:40:22.538Z,4.00
2023-02-06T13:43:14.845Z,4.80
2023-02-06T13:45:48.046Z,4.40
2023-02-06T13:48:52.149Z,4.30
2023-02-06T13:51:41.776Z,4.10
2023-02-06T13:54:31.640Z,4.70
2023-02-06T13:57:10.740Z,4.80
2023-02-06T13:59:42.229Z,4.50
2023-02-06T14:02:23.580Z,4.60
2023-02-06T14:04:50.683Z,4.60
2023-02-06T14:07:39.430Z,4.80
2023-02-06T14:10:34.278Z,4.40
2023-02-06T14:13:15.730Z,4.60
2023-02-06T14:16:05.944Z,4.60
2023-02-06T14:19:24.255Z,5.30
2023-02-06T14:22:08.965Z,4.90
2023-02-06T14:25:04.762Z,5.00
2023-02-06T14:27:35.360Z,4.80
2023-02-06T14:30:24.377Z,4.90
2023-02-06T14:33:16.218Z,5.80
2023-02-06T14:35:58.074Z,5.30
2023-02-06T14:38:37.054Z,5.70
2023-02-06T14:41:04.227Z,4.00
2023-02-06T14:43:35.815Z,6.20
2023-02-06T14:46:08.496Z,7.30
2023-02-06T14:48:57.423Z,6.00
2023-02-06T14:51:28.744Z,5.90
2023-02-06T14:54:01.727Z,6.80
2023-02-06T14:56:32.850Z,6.30
2023-02-06T14:59:16.373Z,7.10
2023-02-06T15:01:47.176Z,6.90
2023-02-06T15:04:14.960Z,6.30
2023-02-06T15:06:45.037Z,7.00
2023-02-06T15:09:33.874Z,7.30
2023-02-06T15:12:23.907Z,6.60
2023-02-06T15:14:53.136Z,7.40
2023-02-06T15:17:21.104Z,6.80
2023-02-06T15:19:49.397Z,7.00
2023-02-06T15:22:23.419Z,7.70
2023-02-06T15:25:22.165Z,6.40
2023-02-06T15:27:49.337Z,6.70
2023-02-06T15:30:21.108Z,6.00
2023-02-06T15:32:50.062Z,6.80
2023-02-06T15:35:28.858Z,5.60
2023-02-06T15:37:57.000Z,6.80
2023-02-06T15:40:31.102Z,5.30
2023-02-06T15:42:58.183Z,6.50
2023-02-06T15:45:46.213Z,6.10
2023-02-06T15:48:21.289Z,5.40
2023-02-06T15:51:01.968Z,5.80
2023-02-06T15:53:39.441Z,5.20
2023-02-06T15:56:16.246Z,5.80
2023-02-06T15:58:43.404Z,5.50
2023-02-06T16:01:17.405Z,6.00
2023-02-06T16:03:44.709Z,5.40
2023-02-06T16:06:15.635Z,6.00
2023-02-06T16:08:54.499Z,6.90
2023-02-06T16:11:40.073Z,5.20
2023-02-06T16:14:21.358Z,6.20
2023-02-06T16:17:02.348Z,7.00
2023-02-06T16:19:41.681Z,6.90
2023-02-06T16:22:42.344Z,7.40
2023-02-06T16:25:22.368Z,7.20
2023-02-06T16:27:51.289Z,6.90
2023-02-06T16:30:29.506Z,6.90
2023-02-06T16:32:57.772Z,6.50
2023-02-06T16:35:25.000Z,6.40
2023-02-06T16:37:53.283Z,6.80
2023-02-06T16:40:20.386Z,7.00
2023-02-06T16:42:47.811Z,7.20
2023-02-06T16:45:18.621Z,7.50
2023-02-06T16:47:45.806Z,7.40
2023-02-06T16:50:13.015Z,6.80
2023-02-06T16:52:41.696Z,6.30
2023-02-06T16:55:15.745Z,6.60
2023-02-06T16:57:44.959Z,6.10
2023-02-06T17:00:26.182Z,6.60
2023-02-06T17:02:53.292Z,6.30
2023-02-06T17:05:22.423Z,5.70
2023-02-06T17:07:50.715Z,6.70
2023-02-06T17:10:19.838Z,6.60
2023-02-06T17:12:47.280Z,6.00
2023-02-06T17:15:15.781Z,6.30
2023-02-06T17:17:43.859Z,5.70
2023-02-06T17:20:37.700Z,6.40
2023-02-06T17:23:07.028Z,6.50
2023-02-06T17:25:34.327Z,6.60
2023-02-06T17:28:01.662Z,6.60
2023-02-06T17:30:28.998Z,5.70
2023-02-06T17:32:56.513Z,6.90
2023-02-06T17:35:23.466Z,6.10
2023-02-06T17:37:51.683Z,6.40
2023-02-06T17:40:24.174Z,7.00
2023-02-06T17:42:51.375Z,6.20
2023-02-06T17:45:18.283Z,6.40
2023-02-06T17:47:45.228Z,6.50
2023-02-06T17:50:16.783Z,6.90
2023-02-06T17:52:44.267Z,5.70
2023-02-06T17:55:11.271Z,6.70
2023-02-06T17:57:38.679Z,6.50
2023-02-06T18:00:07.443Z,6.50
2023-02-06T18:02:36.104Z,6.80
2023-02-06T18:05:04.159Z,6.10
2023-02-06T18:07:31.978Z,7.20
2023-02-06T18:10:02.762Z,7.50
2023-02-06T18:12:30.473Z,7.60
2023-02-06T18:14:57.525Z,7.30
2023-02-06T18:17:24.607Z,7.60
2023-02-06T18:19:52.217Z,8.30
2023-02-06T18:22:21.833Z,6.80
2023-02-06T18:24:50.584Z,7.90
2023-02-06T18:27:20.168Z,8.30
2023-02-06T18:29:50.412Z,8.30
2023-02-06T18:32:18.841Z,8.30
2023-02-06T18:34:46.144Z,8.60
2023-02-06T18:37:13.320Z,8.40
2023-02-06T18:39:40.310Z,9.20
2023-02-06T18:42:26.671Z,7.20
2023-02-06T18:44:53.581Z,8.50
2023-02-06T18:47:20.668Z,8.00
2023-02-06T18:49:47.609Z,7.70
2023-02-06T18:52:14.565Z,7.70
2023-02-06T18:54:42.499Z,6.80
2023-02-06T18:58:58.637Z,8.00
2023-02-06T19:01:26.210Z,7.90
2023-02-06T19:03:53.862Z,7.30
2023-02-06T19:06:23.425Z,8.50
2023-02-06T19:08:52.715Z,8.20
2023-02-06T19:11:23.107Z,8.10
2023-02-06T19:13:56.666Z,8.00
2023-02-06T19:16:30.887Z,7.90
2023-02-06T19:19:01.407Z,7.00
2023-02-06T19:21:29.505Z,7.90
2023-02-06T19:23:59.097Z,7.30
2023-02-06T19:26:27.485Z,8.10
2023-02-06T19:28:55.263Z,7.40
2023-02-06T19:31:25.645Z,8.20
2023-02-06T19:33:55.015Z,8.00
2023-02-06T19:36:23.472Z,7.90
2023-02-06T19:38:53.713Z,7.40
2023-02-06T19:41:23.652Z,7.10
2023-02-06T19:43:51.600Z,8.00
2023-02-06T19:46:20.996Z,8.10
2023-02-06T19:48:48.726Z,8.20
2023-02-06T19:51:21.447Z,8.20
2023-02-06T19:56:24.479Z,8.70
2023-02-06T19:58:56.224Z,8.10
2023-02-06T20:01:24.473Z,7.60
2023-02-06T20:03:52.564Z,8.10
2023-02-06T20:06:19.886Z,7.90
2023-02-06T20:08:47.230Z,8.80
2023-02-06T20:11:17.573Z,9.00
2023-02-06T20:13:46.287Z,9.30
2023-02-06T20:16:19.425Z,8.40
2023-02-06T20:18:48.242Z,9.90
2023-02-06T20:21:31.537Z,8.70
2023-02-06T20:24:01.963Z,8.40
2023-02-06T20:26:32.054Z,7.30
2023-02-06T20:29:00.095Z,9.30
2023-02-06T20:31:28.027Z,9.60
2023-02-06T20:33:56.240Z,10.70
2023-02-06T20:36:26.334Z,10.20
2023-02-06T20:38:55.758Z,10.30
2023-02-06T20:41:26.192Z,9.40
2023-02-06T20:43:56.436Z,9.80
2023-02-06T20:46:25.025Z,9.50
2023-02-06T20:49:00.795Z,9.80
2023-02-06T20:51:28.571Z,9.40
2023-02-06T20:53:55.918Z,8.40
2023-02-06T20:56:23.089Z,8.30
2023-02-06T20:58:51.134Z,9.40
2023-02-06T21:01:28.540Z,9.00
2023-02-06T21:03:56.993Z,8.00
2023-02-06T21:06:25.790Z,8.40
2023-02-06T21:09:00.266Z,8.60
2023-02-06T21:11:29.607Z,7.20
2023-02-06T21:13:58.320Z,7.30
2023-02-06T21:16:29.703Z,6.40
2023-02-06T21:18:57.558Z,7.00
2023-02-06T21:21:25.790Z,8.50
2023-02-06T21:23:53.809Z,7.30
2023-02-06T21:26:20.697Z,10.30
2023-02-06T21:28:48.047Z,7.60
2023-02-06T21:31:23.897Z,7.20
2023-02-06T21:33:51.508Z,6.80
2023-02-06T21:36:18.974Z,8.20
2023-02-06T21:38:46.170Z,12.40
2023-02-06T21:41:14.868Z,7.70
2023-02-06T21:43:41.888Z,8.10
2023-02-06T21:46:09.683Z,6.40
2023-02-06T21:48:36.761Z,7.30
2023-02-06T21:51:14.860Z,6.00
2023-02-06T21:53:42.781Z,6.70
2023-02-06T21:56:17.612Z,6.40
2023-02-06T21:58:45.447Z,5.50
2023-02-06T22:01:17.412Z,5.30
2023-02-06T22:03:45.873Z,6.50
2023-02-06T22:06:13.849Z,5.50
2023-02-06T22:08:43.056Z,6.90
2023-02-06T22:11:30.685Z,5.00
2023-02-06T22:14:06.449Z,5.40
2023-02-06T22:16:35.667Z,5.20
2023-02-06T22:19:04.355Z,4.60
2023-02-06T22:21:31.862Z,4.80
2023-02-06T22:24:01.580Z,4.20
2023-02-06T22:26:30.175Z,4.90
2023-02-06T22:28:59.124Z,5.00
2023-02-06T22:31:28.458Z,5.10
2023-02-06T22:33:55.597Z,4.60
2023-02-06T22:36:24.172Z,4.70
2023-02-06T22:39:03.508Z,4.60
2023-02-06T22:41:30.697Z,4.50
2023-02-06T22:43:57.713Z,5.20
2023-02-06T22:46:25.918Z,4.50
2023-02-06T22:48:53.499Z,5.10
2023-02-06T22:51:20.990Z,4.90
2023-02-06T22:53:48.157Z,5.20
2023-02-06T22:56:31.322Z,5.70
2023-02-06T22:59:04.452Z,4.80
2023-02-06T23:01:42.296Z,5.10
2023-02-06T23:04:12.776Z,5.10
2023-02-06T23:06:42.965Z,5.80
2023-02-06T23:09:15.856Z,5.90
2023-02-06T23:11:43.417Z,6.10
2023-02-06T23:14:11.193Z,7.10
2023-02-06T23:16:38.624Z,6.20
2023-02-06T23:19:06.501Z,7.40
2023-02-06T23:21:36.057Z,6.10
2023-02-06T23:24:04.281Z,6.60
2023-02-06T23:26:31.512Z,6.50
2023-02-06T23:28:59.339Z,6.20
2023-02-06T23:31:26.528Z,6.70
2023-02-06T23:33:53.532Z,6.50
2023-02-06T23:36:22.657Z,6.70
2023-02-06T23:38:54.926Z,7.20
2023-02-06T23:43:57.938Z,6.80
2023-02-06T23:46:25.186Z,6.40
2023-02-06T23:48:52.392Z,6.50
2023-02-06T23:51:20.613Z,7.40
2023-02-06T23:53:48.283Z,7.30
2023-02-06T23:56:17.512Z,7.00
2023-02-06T23:58:44.424Z,7.00
